sensor_id;sensor_type;location;lat;lon;timestamp;pressure;altitude;pressure_sealevel;temperature;humidity
71774;BME280;59607;52.130;5.430;2023-05-28T00:00:49;102279.91;;;13.38;100.00
71774;BME280;59607;52.130;5.430;2023-05-28T00:03:18;102274.25;;;13.33;100.00
71774;BME280;59607;52.130;5.430;2023-05-28T00:05:45;102267.59;;;13.29;100.00
71774;BME280;59607;52.130;5.430;2023-05-28T00:08:12;102267.06;;;13.25;100.00
71774;BME280;59607;52.130;5.430;2023-05-28T00:10:41;102261.28;;;13.22;100.00
71774;BME280;59607;52.130;5.430;2023-05-28T00:13:11;102263.06;;;13.21;100.00
71774;BME280;59607;52.130;5.430;2023-05-28T00:15:40;102264.34;;;13.17;100.00
71774;BME280;59607;52.130;5.430;2023-05-28T00:18:06;102263.78;;;13.13;100.00
71774;BME280;59607;52.130;5.430;2023-05-28T00:20:40;102260.31;;;13.13;100.00
71774;BME280;59607;52.130;5.430;2023-05-28T00:23:07;102268.66;;;13.08;100.00
71774;BME280;59607;52.130;5.430;2023-05-28T00:25:36;102263.69;;;13.05;100.00
71774;BME280;59607;52.130;5.430;2023-05-28T00:28:03;102272.72;;;13.02;100.00
71774;BME280;59607;52.130;5.430;2023-05-28T00:30:29;102269.38;;;13.00;100.00
71774;BME280;59607;52.130;5.430;2023-05-28T00:32:56;102269.53;;;12.99;100.00
71774;BME280;59607;52.130;5.430;2023-05-28T00:35:22;102269.81;;;12.95;100.00
71774;BME280;59607;52.130;5.430;2023-05-28T00:37:53;102261.38;;;12.92;100.00
71774;BME280;59607;52.130;5.430;2023-05-28T00:40:20;102260.53;;;12.91;100.00
71774;BME280;59607;52.130;5.430;2023-05-28T00:42:50;102252.25;;;12.86;100.00
71774;BME280;59607;52.130;5.430;2023-05-28T00:45:17;102249.59;;;12.86;100.00
71774;BME280;59607;52.130;5.430;2023-05-28T00:47:44;102244.47;;;12.85;100.00
71774;BME280;59607;52.130;5.430;2023-05-28T00:50:14;102244.88;;;12.80;100.00
71774;BME280;59607;52.130;5.430;2023-05-28T00:52:46;102242.41;;;12.78;100.00
71774;BME280;59607;52.130;5.430;2023-05-28T00:55:33;102234.78;;;12.75;100.00
71774;BME280;59607;52.130;5.430;2023-05-28T00:58:04;102230.66;;;12.73;100.00
71774;BME280;59607;52.130;5.430;2023-05-28T01:00:37;102225.66;;;12.69;100.00
71774;BME280;59607;52.130;5.430;2023-05-28T01:03:06;102231.06;;;12.68;100.00
71774;BME280;59607;52.130;5.430;2023-05-28T01:05:35;102232.88;;;12.67;100.00
71774;BME280;59607;52.130;5.430;2023-05-28T01:08:07;102232.03;;;12.67;100.00
71774;BME280;59607;52.130;5.430;2023-05-28T01:10:34;102229.53;;;12.65;100.00
71774;BME280;59607;52.130;5.430;2023-05-28T01:13:07;102221.66;;;12.65;100.00
71774;BME280;59607;52.130;5.430;2023-05-28T01:15:34;102216.53;;;12.64;100.00
71774;BME280;59607;52.130;5.430;2023-05-28T01:18:04;102218.50;;;12.62;100.00
71774;BME280;59607;52.130;5.430;2023-05-28T01:20:42;102219.44;;;12.61;100.00
71774;BME280;59607;52.130;5.430;2023-05-28T01:23:18;102222.22;;;12.59;100.00
71774;BME280;59607;52.130;5.430;2023-05-28T01:25:50;102217.25;;;12.56;100.00
71774;BME280;59607;52.130;5.430;2023-05-28T01:28:25;102224.44;;;12.54;100.00
71774;BME280;59607;52.130;5.430;2023-05-28T01:31:09;102216.81;;;12.51;100.00
71774;BME280;59607;52.130;5.430;2023-05-28T01:33:40;102220.59;;;12.48;100.00
71774;BME280;59607;52.130;5.430;2023-05-28T01:36:21;102221.84;;;12.44;100.00
71774;BME280;59607;52.130;5.430;2023-05-28T01:38:49;102211.31;;;12.44;100.00
71774;BME280;59607;52.130;5.430;2023-05-28T01:41:38;102217.69;;;12.41;100.00
71774;BME280;59607;52.130;5.430;2023-05-28T01:44:15;102218.25;;;12.35;100.00
71774;BME280;59607;52.130;5.430;2023-05-28T01:46:48;102222.00;;;12.32;100.00
71774;BME280;59607;52.130;5.430;2023-05-28T01:49:21;102232.94;;;12.28;100.00
71774;BME280;59607;52.130;5.430;2023-05-28T01:51:50;102227.94;;;12.25;100.00
71774;BME280;59607;52.130;5.430;2023-05-28T01:54:21;102219.38;;;12.23;100.00
71774;BME280;59607;52.130;5.430;2023-05-28T01:56:52;102237.09;;;12.20;100.00
71774;BME280;59607;52.130;5.430;2023-05-28T01:59:18;102233.75;;;12.18;100.00
71774;BME280;59607;52.130;5.430;2023-05-28T02:01:45;102233.09;;;12.16;100.00
71774;BME280;59607;52.130;5.430;2023-05-28T02:04:11;102232.09;;;12.17;100.00
71774;BME280;59607;52.130;5.430;2023-05-28T02:06:45;102226.84;;;12.17;100.00
71774;BME280;59607;52.130;5.430;2023-05-28T02:09:14;102230.59;;;12.15;100.00
71774;BME280;59607;52.130;5.430;2023-05-28T02:11:43;102229.88;;;12.13;100.00
71774;BME280;59607;52.130;5.430;2023-05-28T02:14:09;102225.59;;;12.12;100.00
71774;BME280;59607;52.130;5.430;2023-05-28T02:16:51;102223.94;;;12.11;100.00
71774;BME280;59607;52.130;5.430;2023-05-28T02:19:24;102227.41;;;12.11;100.00
71774;BME280;59607;52.130;5.430;2023-05-28T02:21:52;102223.94;;;12.11;100.00
71774;BME280;59607;52.130;5.430;2023-05-28T02:24:28;102227.78;;;12.06;100.00
71774;BME280;59607;52.130;5.430;2023-05-28T02:26:54;102220.72;;;12.07;100.00
71774;BME280;59607;52.130;5.430;2023-05-28T02:29:29;102217.81;;;12.10;100.00
71774;BME280;59607;52.130;5.430;2023-05-28T02:31:56;102218.53;;;12.12;100.00
71774;BME280;59607;52.130;5.430;2023-05-28T02:34:22;102213.41;;;12.11;100.00
71774;BME280;59607;52.130;5.430;2023-05-28T02:36:54;102209.28;;;12.08;100.00
71774;BME280;59607;52.130;5.430;2023-05-28T02:39:22;102212.81;;;12.07;100.00
71774;BME280;59607;52.130;5.430;2023-05-28T02:42:08;102219.06;;;12.06;100.00
71774;BME280;59607;52.130;5.430;2023-05-28T02:44:41;102224.47;;;12.04;100.00
71774;BME280;59607;52.130;5.430;2023-05-28T02:47:07;102221.13;;;12.02;100.00
71774;BME280;59607;52.130;5.430;2023-05-28T02:49:51;102231.66;;;12.02;100.00
71774;BME280;59607;52.130;5.430;2023-05-28T02:52:18;102227.66;;;11.98;100.00
71774;BME280;59607;52.130;5.430;2023-05-28T02:54:46;102233.03;;;11.96;100.00
71774;BME280;59607;52.130;5.430;2023-05-28T02:57:16;102229.44;;;11.97;100.00
71774;BME280;59607;52.130;5.430;2023-05-28T02:59:49;102233.19;;;11.95;100.00
71774;BME280;59607;52.130;5.430;2023-05-28T03:02:21;102231.63;;;11.92;100.00
71774;BME280;59607;52.130;5.430;2023-05-28T03:04:48;102238.72;;;11.92;100.00
71774;BME280;59607;52.130;5.430;2023-05-28T03:07:14;102230.81;;;11.92;100.00
71774;BME280;59607;52.130;5.430;2023-05-28T03:09:41;102225.69;;;11.90;100.00
71774;BME280;59607;52.130;5.430;2023-05-28T03:12:08;102224.72;;;11.91;100.00
71774;BME280;59607;52.130;5.430;2023-05-28T03:14:38;102226.50;;;11.91;100.00
71774;BME280;59607;52.130;5.430;2023-05-28T03:17:05;102230.25;;;11.88;100.00
71774;BME280;59607;52.130;5.430;2023-05-28T03:19:46;102228.59;;;11.87;100.00
71774;BME280;59607;52.130;5.430;2023-05-28T03:22:20;102232.19;;;11.86;100.00
71774;BME280;59607;52.130;5.430;2023-05-28T03:24:47;102233.16;;;11.85;100.00
71774;BME280;59607;52.130;5.430;2023-05-28T03:27:21;102230.66;;;11.83;100.00
71774;BME280;59607;52.130;5.430;2023-05-28T03:29:47;102237.72;;;11.83;100.00
71774;BME280;59607;52.130;5.430;2023-05-28T03:32:14;102237.72;;;11.83;100.00
71774;BME280;59607;52.130;5.430;2023-05-28T03:34:41;102238.56;;;11.83;100.00
71774;BME280;59607;52.130;5.430;2023-05-28T03:37:09;102243.13;;;11.81;100.00
71774;BME280;59607;52.130;5.430;2023-05-28T03:39:36;102238.69;;;11.82;100.00
71774;BME280;59607;52.130;5.430;2023-05-28T03:42:16;102238.56;;;11.83;100.00
71774;BME280;59607;52.130;5.430;2023-05-28T03:44:55;102235.94;;;11.83;100.00
71774;BME280;59607;52.130;5.430;2023-05-28T03:47:22;102229.69;;;11.84;100.00
71774;BME280;59607;52.130;5.430;2023-05-28T03:49:52;102234.81;;;11.86;100.00
71774;BME280;59607;52.130;5.430;2023-05-28T03:52:19;102236.78;;;11.84;100.00
71774;BME280;59607;52.130;5.430;2023-05-28T03:54:48;102242.84;;;11.84;100.00
71774;BME280;59607;52.130;5.430;2023-05-28T03:57:17;102247.00;;;11.87;100.00
71774;BME280;59607;52.130;5.430;2023-05-28T03:59:43;102237.88;;;11.91;100.00
71774;BME280;59607;52.130;5.430;2023-05-28T04:02:10;102247.84;;;11.97;100.00
71774;BME280;59607;52.130;5.430;2023-05-28T04:04:36;102247.56;;;12.01;100.00
71774;BME280;59607;52.130;5.430;2023-05-28T04:07:07;102240.94;;;12.06;100.00
71774;BME280;59607;52.130;5.430;2023-05-28T04:09:34;102241.50;;;12.10;100.00
71774;BME280;59607;52.130;5.430;2023-05-28T04:12:01;102245.66;;;12.13;100.00
71774;BME280;59607;52.130;5.430;2023-05-28T04:14:31;102239.84;;;12.19;100.00
71774;BME280;59607;52.130;5.430;2023-05-28T04:17:00;102233.63;;;12.30;100.00
71774;BME280;59607;52.130;5.430;2023-05-28T04:19:29;102225.28;;;12.44;100.00
71774;BME280;59607;52.130;5.430;2023-05-28T04:21:55;102229.84;;;12.52;100.00
71774;BME280;59607;52.130;5.430;2023-05-28T04:24:22;102242.19;;;12.52;100.00
71774;BME280;59607;52.130;5.430;2023-05-28T04:26:54;102242.06;;;12.43;100.00
71774;BME280;59607;52.130;5.430;2023-05-28T04:29:20;102244.84;;;12.42;100.00
71774;BME280;59607;52.130;5.430;2023-05-28T04:31:51;102248.03;;;12.36;100.00
71774;BME280;59607;52.130;5.430;2023-05-28T04:34:25;102250.50;;;12.37;100.00
71774;BME280;59607;52.130;5.430;2023-05-28T04:36:55;102246.75;;;12.40;100.00
71774;BME280;59607;52.130;5.430;2023-05-28T04:39:24;102241.91;;;12.45;100.00
71774;BME280;59607;52.130;5.430;2023-05-28T04:41:54;102248.56;;;12.49;100.00
71774;BME280;59607;52.130;5.430;2023-05-28T04:44:23;102253.53;;;12.52;100.00
71774;BME280;59607;52.130;5.430;2023-05-28T04:46:52;102247.59;;;12.50;100.00
71774;BME280;59607;52.130;5.430;2023-05-28T04:49:21;102250.09;;;12.52;100.00
71774;BME280;59607;52.130;5.430;2023-05-28T04:51:50;102254.50;;;12.51;100.00
71774;BME280;59607;52.130;5.430;2023-05-28T04:54:17;102253.94;;;12.57;100.00
71774;BME280;59607;52.130;5.430;2023-05-28T04:56:59;102251.59;;;12.64;100.00
71774;BME280;59607;52.130;5.430;2023-05-28T04:59:32;102253.66;;;12.70;100.00
71774;BME280;59607;52.130;5.430;2023-05-28T05:01:58;102252.13;;;12.78;100.00
71774;BME280;59607;52.130;5.430;2023-05-28T05:04:25;102260.00;;;12.88;100.00
71774;BME280;59607;52.130;5.430;2023-05-28T05:06:57;102262.03;;;13.04;100.00
71774;BME280;59607;52.130;5.430;2023-05-28T05:09:23;102257.88;;;15.20;99.09
71774;BME280;59607;52.130;5.430;2023-05-28T05:11:53;102245.75;;;17.19;82.63
71774;BME280;59607;52.130;5.430;2023-05-28T05:14:27;102242.59;;;17.79;75.06
71774;BME280;59607;52.130;5.430;2023-05-28T05:16:56;102245.84;;;18.52;71.13
71774;BME280;59607;52.130;5.430;2023-05-28T05:19:27;102247.50;;;19.13;66.40
71774;BME280;59607;52.130;5.430;2023-05-28T05:21:56;102242.06;;;19.06;66.46
71774;BME280;59607;52.130;5.430;2023-05-28T05:24:26;102247.31;;;19.15;65.48
71774;BME280;59607;52.130;5.430;2023-05-28T05:26:52;102245.97;;;19.19;63.98
71774;BME280;59607;52.130;5.430;2023-05-28T05:29:29;102247.22;;;19.23;64.79
71774;BME280;59607;52.130;5.430;2023-05-28T05:31:59;102240.94;;;19.46;63.54
71774;BME280;59607;52.130;5.430;2023-05-28T05:34:32;102249.50;;;19.63;61.88
71774;BME280;59607;52.130;5.430;2023-05-28T05:36:58;102245.91;;;19.93;60.54
71774;BME280;59607;52.130;5.430;2023-05-28T05:39:33;102246.91;;;20.42;58.70
71774;BME280;59607;52.130;5.430;2023-05-28T05:41:59;102237.03;;;20.65;57.69
71774;BME280;59607;52.130;5.430;2023-05-28T05:44:26;102231.75;;;20.78;56.90
71774;BME280;59607;52.130;5.430;2023-05-28T05:46:53;102242.66;;;20.48;57.24
71774;BME280;59607;52.130;5.430;2023-05-28T05:49:23;102255.69;;;20.65;57.06
71774;BME280;59607;52.130;5.430;2023-05-28T05:51:49;102257.19;;;20.74;56.78
71774;BME280;59607;52.130;5.430;2023-05-28T05:54:21;102254.13;;;20.77;57.15
71774;BME280;59607;52.130;5.430;2023-05-28T05:56:47;102250.69;;;21.32;55.35
71774;BME280;59607;52.130;5.430;2023-05-28T05:59:23;102253.19;;;20.56;56.68
71774;BME280;59607;52.130;5.430;2023-05-28T06:01:50;102251.97;;;20.30;57.33
71774;BME280;59607;52.130;5.430;2023-05-28T06:04:16;102253.75;;;19.79;59.04
71774;BME280;59607;52.130;5.430;2023-05-28T06:06:47;102244.69;;;20.17;58.19
71774;BME280;59607;52.130;5.430;2023-05-28T06:09:13;102249.22;;;20.02;58.42
71774;BME280;59607;52.130;5.430;2023-05-28T06:11:40;102239.91;;;20.34;57.46
71774;BME280;59607;52.130;5.430;2023-05-28T06:14:07;102248.31;;;19.88;58.80
71774;BME280;59607;52.130;5.430;2023-05-28T06:16:36;102257.03;;;19.59;59.66
71774;BME280;59607;52.130;5.430;2023-05-28T06:19:03;102259.59;;;19.01;62.12
71774;BME280;59607;52.130;5.430;2023-05-28T06:21:47;102256.31;;;18.68;64.07
71774;BME280;59607;52.130;5.430;2023-05-28T06:24:19;102261.66;;;18.45;64.27
71774;BME280;59607;52.130;5.430;2023-05-28T06:26:47;102264.03;;;18.40;65.72
71774;BME280;59607;52.130;5.430;2023-05-28T06:29:29;102261.00;;;18.28;66.69
71774;BME280;59607;52.130;5.430;2023-05-28T06:32:12;102262.28;;;17.61;69.13
71774;BME280;59607;52.130;5.430;2023-05-28T06:34:39;102258.16;;;17.19;71.95
71774;BME280;59607;52.130;5.430;2023-05-28T06:37:09;102257.97;;;17.29;71.83
71774;BME280;59607;52.130;5.430;2023-05-28T06:39:36;102257.25;;;17.35;72.19
71774;BME280;59607;52.130;5.430;2023-05-28T06:42:03;102254.25;;;17.38;71.93
71774;BME280;59607;52.130;5.430;2023-05-28T06:44:31;102253.03;;;17.49;70.79
71774;BME280;59607;52.130;5.430;2023-05-28T06:46:58;102254.94;;;17.40;71.68
71774;BME280;59607;52.130;5.430;2023-05-28T06:49:31;102263.97;;;17.22;72.49
71774;BME280;59607;52.130;5.430;2023-05-28T06:51:58;102254.34;;;17.13;72.59
71774;BME280;59607;52.130;5.430;2023-05-28T06:54:30;102260.97;;;17.25;71.12
71774;BME280;59607;52.130;5.430;2023-05-28T06:57:00;102251.81;;;17.28;71.69
71774;BME280;59607;52.130;5.430;2023-05-28T06:59:36;102256.75;;;17.39;71.24
71774;BME280;59607;52.130;5.430;2023-05-28T07:02:02;102254.22;;;17.46;71.68
71774;BME280;59607;52.130;5.430;2023-05-28T07:04:35;102256.19;;;17.52;72.74
71774;BME280;59607;52.130;5.430;2023-05-28T07:07:05;102259.50;;;17.55;72.77
71774;BME280;59607;52.130;5.430;2023-05-28T07:09:31;102261.53;;;17.44;72.90
71774;BME280;59607;52.130;5.430;2023-05-28T07:12:18;102272.84;;;17.30;73.68
71774;BME280;59607;52.130;5.430;2023-05-28T07:14:44;102265.84;;;17.45;73.57
71774;BME280;59607;52.130;5.430;2023-05-28T07:17:11;102268.50;;;17.45;72.69
71774;BME280;59607;52.130;5.430;2023-05-28T07:19:37;102280.22;;;17.51;72.90
71774;BME280;59607;52.130;5.430;2023-05-28T07:22:08;102284.25;;;17.47;72.41
71774;BME280;59607;52.130;5.430;2023-05-28T07:24:35;102281.47;;;17.63;72.45
71774;BME280;59607;52.130;5.430;2023-05-28T07:27:03;102277.72;;;17.81;72.10
71774;BME280;59607;52.130;5.430;2023-05-28T07:29:32;102273.38;;;18.12;70.33
71774;BME280;59607;52.130;5.430;2023-05-28T07:31:59;102274.72;;;18.31;70.20
71774;BME280;59607;52.130;5.430;2023-05-28T07:34:26;102279.72;;;18.49;69.17
71774;BME280;59607;52.130;5.430;2023-05-28T07:37:12;102290.41;;;18.41;68.55
71774;BME280;59607;52.130;5.430;2023-05-28T07:39:47;102284.22;;;18.49;68.87
71774;BME280;59607;52.130;5.430;2023-05-28T07:42:16;102281.88;;;18.84;69.25
71774;BME280;59607;52.130;5.430;2023-05-28T07:44:44;102280.16;;;19.22;66.03
71774;BME280;59607;52.130;5.430;2023-05-28T07:47:15;102282.44;;;19.10;66.01
71774;BME280;59607;52.130;5.430;2023-05-28T07:49:45;102275.31;;;19.10;67.21
71774;BME280;59607;52.130;5.430;2023-05-28T07:52:11;102282.88;;;19.44;66.03
71774;BME280;59607;52.130;5.430;2023-05-28T07:54:46;102279.84;;;19.32;66.69
71774;BME280;59607;52.130;5.430;2023-05-28T07:57:12;102281.25;;;19.13;66.32
71774;BME280;59607;52.130;5.430;2023-05-28T07:59:51;102287.94;;;19.08;65.99
71774;BME280;59607;52.130;5.430;2023-05-28T08:02:19;102292.69;;;18.98;66.36
71774;BME280;59607;52.130;5.430;2023-05-28T08:04:52;102281.50;;;19.03;67.27
71774;BME280;59607;52.130;5.430;2023-05-28T08:07:20;102282.59;;;19.39;65.96
71774;BME280;59607;52.130;5.430;2023-05-28T08:09:50;102281.59;;;19.40;65.35
71774;BME280;59607;52.130;5.430;2023-05-28T08:12:24;102274.28;;;19.27;65.06
71774;BME280;59607;52.130;5.430;2023-05-28T08:14:53;102284.28;;;19.24;64.09
71774;BME280;59607;52.130;5.430;2023-05-28T08:17:22;102273.53;;;19.33;64.40
71774;BME280;59607;52.130;5.430;2023-05-28T08:19:52;102283.59;;;19.53;64.29
71774;BME280;59607;52.130;5.430;2023-05-28T08:22:27;102285.78;;;19.86;63.53
71774;BME280;59607;52.130;5.430;2023-05-28T08:25:04;102287.66;;;19.92;63.84
71774;BME280;59607;52.130;5.430;2023-05-28T08:27:33;102286.41;;;19.88;62.03
71774;BME280;59607;52.130;5.430;2023-05-28T08:30:07;102284.97;;;20.07;63.08
71774;BME280;59607;52.130;5.430;2023-05-28T08:32:35;102277.25;;;20.13;60.96
71774;BME280;59607;52.130;5.430;2023-05-28T08:35:08;102281.69;;;19.90;62.31
71774;BME280;59607;52.130;5.430;2023-05-28T08:37:35;102269.28;;;19.76;62.15
71774;BME280;59607;52.130;5.430;2023-05-28T08:40:02;102262.00;;;19.84;62.35
71774;BME280;59607;52.130;5.430;2023-05-28T08:42:35;102266.81;;;19.96;62.58
71774;BME280;59607;52.130;5.430;2023-05-28T08:45:03;102266.03;;;20.02;61.43
71774;BME280;59607;52.130;5.430;2023-05-28T08:47:34;102269.94;;;20.00;61.48
71774;BME280;59607;52.130;5.430;2023-05-28T08:50:07;102269.72;;;20.23;60.39
71774;BME280;59607;52.130;5.430;2023-05-28T08:52:39;102274.50;;;20.06;60.27
71774;BME280;59607;52.130;5.430;2023-05-28T08:55:06;102276.38;;;19.68;60.92
71774;BME280;59607;52.130;5.430;2023-05-28T08:57:36;102270.59;;;19.65;61.96
71774;BME280;59607;52.130;5.430;2023-05-28T09:00:08;102278.09;;;19.76;62.35
71774;BME280;59607;52.130;5.430;2023-05-28T09:02:38;102281.78;;;19.97;61.18
71774;BME280;59607;52.130;5.430;2023-05-28T09:05:05;102272.31;;;20.09;60.45
71774;BME280;59607;52.130;5.430;2023-05-28T09:07:32;102266.75;;;19.89;60.86
71774;BME280;59607;52.130;5.430;2023-05-28T09:10:02;102268.09;;;20.22;60.74
71774;BME280;59607;52.130;5.430;2023-05-28T09:12:36;102271.22;;;20.26;59.74
71774;BME280;59607;52.130;5.430;2023-05-28T09:15:16;102269.47;;;19.96;60.29
71774;BME280;59607;52.130;5.430;2023-05-28T09:17:51;102267.25;;;19.78;61.00
71774;BME280;59607;52.130;5.430;2023-05-28T09:20:18;102265.72;;;19.68;60.75
71774;BME280;59607;52.130;5.430;2023-05-28T09:23:00;102268.78;;;19.65;60.57
71774;BME280;59607;52.130;5.430;2023-05-28T09:25:31;102274.06;;;19.80;61.13
71774;BME280;59607;52.130;5.430;2023-05-28T09:28:04;102273.47;;;19.85;60.37
71774;BME280;59607;52.130;5.430;2023-05-28T09:30:39;102262.38;;;20.03;60.31
71774;BME280;59607;52.130;5.430;2023-05-28T09:33:06;102262.81;;;20.29;58.77
71774;BME280;59607;52.130;5.430;2023-05-28T09:35:40;102271.69;;;20.36;57.30
71774;BME280;59607;52.130;5.430;2023-05-28T09:38:11;102266.72;;;20.33;57.56
71774;BME280;59607;52.130;5.430;2023-05-28T09:40:44;102252.19;;;20.64;57.22
71774;BME280;59607;52.130;5.430;2023-05-28T09:43:11;102257.41;;;20.79;57.01
71774;BME280;59607;52.130;5.430;2023-05-28T09:45:42;102256.03;;;20.90;56.15
71774;BME280;59607;52.130;5.430;2023-05-28T09:48:08;102257.78;;;21.05;54.88
71774;BME280;59607;52.130;5.430;2023-05-28T09:50:35;102246.38;;;21.38;53.78
71774;BME280;59607;52.130;5.430;2023-05-28T09:53:14;102241.69;;;21.47;53.51
71774;BME280;59607;52.130;5.430;2023-05-28T09:55:41;102243.72;;;21.45;53.65
71774;BME280;59607;52.130;5.430;2023-05-28T09:58:31;102248.03;;;21.39;52.80
71774;BME280;59607;52.130;5.430;2023-05-28T10:01:07;102243.13;;;21.36;52.79
71774;BME280;59607;52.130;5.430;2023-05-28T10:03:39;102240.66;;;21.35;53.08
71774;BME280;59607;52.130;5.430;2023-05-28T10:06:14;102243.88;;;21.30;52.81
71774;BME280;59607;52.130;5.430;2023-05-28T10:08:50;102233.31;;;21.57;53.54
71774;BME280;59607;52.130;5.430;2023-05-28T10:11:27;102241.56;;;22.03;52.37
71774;BME280;59607;52.130;5.430;2023-05-28T10:14:13;102247.34;;;21.86;51.56
71774;BME280;59607;52.130;5.430;2023-05-28T10:16:43;102239.50;;;22.05;53.45
71774;BME280;59607;52.130;5.430;2023-05-28T10:19:09;102238.28;;;22.21;51.50
71774;BME280;59607;52.130;5.430;2023-05-28T10:21:36;102239.72;;;22.17;51.39
71774;BME280;59607;52.130;5.430;2023-05-28T10:24:09;102240.53;;;22.24;51.60
71774;BME280;59607;52.130;5.430;2023-05-28T10:26:36;102233.97;;;22.13;51.01
71774;BME280;59607;52.130;5.430;2023-05-28T10:29:06;102234.13;;;22.39;51.37
71774;BME280;59607;52.130;5.430;2023-05-28T10:31:37;102229.59;;;22.60;50.44
71774;BME280;59607;52.130;5.430;2023-05-28T10:34:14;102226.69;;;22.68;49.55
71774;BME280;59607;52.130;5.430;2023-05-28T10:36:54;102225.06;;;22.67;49.90
71774;BME280;59607;52.130;5.430;2023-05-28T10:39:43;102232.28;;;22.46;50.19
71774;BME280;59607;52.130;5.430;2023-05-28T10:42:18;102225.81;;;22.81;49.93
71774;BME280;59607;52.130;5.430;2023-05-28T10:47:33;102233.50;;;22.71;48.64
71774;BME280;59607;52.130;5.430;2023-05-28T10:50:16;102226.69;;;22.68;49.76
71774;BME280;59607;52.130;5.430;2023-05-28T10:53:07;102234.63;;;22.95;48.99
71774;BME280;59607;52.130;5.430;2023-05-28T10:55:55;102241.47;;;22.77;49.04
71774;BME280;59607;52.130;5.430;2023-05-28T11:01:00;102233.81;;;22.95;48.98
71774;BME280;59607;52.130;5.430;2023-05-28T11:03:46;102241.97;;;23.07;47.55
71774;BME280;59607;52.130;5.430;2023-05-28T11:06:16;102232.84;;;23.21;47.64
71774;BME280;59607;52.130;5.430;2023-05-28T11:08:47;102223.38;;;23.25;47.08
71774;BME280;59607;52.130;5.430;2023-05-28T11:11:17;102231.34;;;22.93;47.52
71774;BME280;59607;52.130;5.430;2023-05-28T11:13:45;102241.25;;;22.86;47.45
71774;BME280;59607;52.130;5.430;2023-05-28T11:16:20;102230.13;;;22.89;47.91
71774;BME280;59607;52.130;5.430;2023-05-28T11:19:04;102232.63;;;22.84;47.34
71774;BME280;59607;52.130;5.430;2023-05-28T11:21:50;102225.34;;;22.98;47.53
71774;BME280;59607;52.130;5.430;2023-05-28T11:24:20;102226.22;;;22.85;47.89
71774;BME280;59607;52.130;5.430;2023-05-28T11:26:47;102227.19;;;22.97;47.01
71774;BME280;59607;52.130;5.430;2023-05-28T11:29:15;102239.16;;;22.95;47.47
71774;BME280;59607;52.130;5.430;2023-05-28T11:31:44;102242.78;;;23.14;46.72
71774;BME280;59607;52.130;5.430;2023-05-28T11:34:10;102240.72;;;23.16;46.70
71774;BME280;59607;52.130;5.430;2023-05-28T11:36:42;102246.59;;;23.32;46.54
71774;BME280;59607;52.130;5.430;2023-05-28T11:39:12;102238.75;;;23.37;46.58
71774;BME280;59607;52.130;5.430;2023-05-28T11:41:39;102235.72;;;23.65;46.00
71774;BME280;59607;52.130;5.430;2023-05-28T11:44:21;102239.91;;;23.54;45.95
71774;BME280;59607;52.130;5.430;2023-05-28T11:46:55;102237.72;;;23.38;46.49
71774;BME280;59607;52.130;5.430;2023-05-28T11:49:22;102237.53;;;23.33;46.44
71774;BME280;59607;52.130;5.430;2023-05-28T11:51:55;102241.97;;;23.07;46.78
71774;BME280;59607;52.130;5.430;2023-05-28T11:54:22;102234.59;;;23.02;46.35
71774;BME280;59607;52.130;5.430;2023-05-28T11:56:51;102239.88;;;23.15;46.66
71774;BME280;59607;52.130;5.430;2023-05-28T11:59:21;102241.47;;;23.30;46.47
71774;BME280;59607;52.130;5.430;2023-05-28T12:02:08;102225.28;;;23.50;45.61
71774;BME280;59607;52.130;5.430;2023-05-28T12:04:37;102249.88;;;23.73;45.05
71774;BME280;59607;52.130;5.430;2023-05-28T12:07:07;102240.13;;;23.53;44.95
71774;BME280;59607;52.130;5.430;2023-05-28T12:09:37;102239.81;;;23.29;46.12
71774;BME280;59607;52.130;5.430;2023-05-28T12:12:11;102242.59;;;23.54;45.74
71774;BME280;59607;52.130;5.430;2023-05-28T12:14:44;102232.91;;;23.53;45.25
71774;BME280;59607;52.130;5.430;2023-05-28T12:17:15;102236.72;;;23.32;45.54
71774;BME280;59607;52.130;5.430;2023-05-28T12:19:46;102230.81;;;23.16;46.03
71774;BME280;59607;52.130;5.430;2023-05-28T12:22:16;102228.81;;;23.05;46.09
71774;BME280;59607;52.130;5.430;2023-05-28T12:25:10;102232.69;;;23.16;46.52
71774;BME280;59607;52.130;5.430;2023-05-28T12:27:40;102229.13;;;23.29;44.97
71774;BME280;59607;52.130;5.430;2023-05-28T12:30:11;102226.66;;;23.27;45.24
71774;BME280;59607;52.130;5.430;2023-05-28T12:32:37;102226.31;;;23.56;44.48
71774;BME280;59607;52.130;5.430;2023-05-28T12:35:04;102231.94;;;23.73;44.14
71774;BME280;59607;52.130;5.430;2023-05-28T12:37:31;102222.09;;;23.67;44.59
71774;BME280;59607;52.130;5.430;2023-05-28T12:40:03;102218.31;;;23.49;44.75
71774;BME280;59607;52.130;5.430;2023-05-28T12:42:30;102193.00;;;23.45;44.93
71774;BME280;59607;52.130;5.430;2023-05-28T12:45:11;102223.47;;;23.05;45.00
71774;BME280;59607;52.130;5.430;2023-05-28T12:47:38;102212.72;;;23.12;45.18
71774;BME280;59607;52.130;5.430;2023-05-28T12:50:11;102216.66;;;23.09;45.87
71774;BME280;59607;52.130;5.430;2023-05-28T12:52:40;102215.56;;;23.24;44.89
71774;BME280;59607;52.130;5.430;2023-05-28T12:55:11;102217.63;;;23.22;45.31
71774;BME280;59607;52.130;5.430;2023-05-28T12:57:42;102207.97;;;23.21;44.93
71774;BME280;59607;52.130;5.430;2023-05-28T13:00:12;102204.69;;;23.51;44.91
71774;BME280;59607;52.130;5.430;2023-05-28T13:02:39;102203.28;;;23.48;43.83
71774;BME280;59607;52.130;5.430;2023-05-28T13:05:10;102197.31;;;23.72;43.50
71774;BME280;59607;52.130;5.430;2023-05-28T13:07:36;102202.31;;;23.68;42.73
71774;BME280;59607;52.130;5.430;2023-05-28T13:10:03;102209.84;;;23.52;43.16